Beaver Bay, MN

6:25 AM CDT on April 25, 2017 (GMT -0500)
Silver Bay Safeharbor | | Change Station
Active Advisory: Winter Storm Watch

Elev 607 ft 47.27 °N, 91.28 °W | Updated 11 seconds ago

Rain
Rain
42.5 °F
Feels Like 36 °F
N
12.0
Wind Variable Wind from NE

Today
High -- | Low -- °F
--% Chance of Precip.
Yesterday
High -- | Low -- °F
Precip. -- in
Pressure 29.57 in
Visibility 10.0 miles
Clouds Overcast 7500 ft
Windchill 36 °F
Dew Point 39 °F
Humidity 88%
Rainfall 0.00 in
Snow Depth Not available.
5:58 AM 8:08 PM
Waning Crescent, 2% visible
METAR KBFW 251114Z AUTO 01006KT 10SM -DZ OVC075 06/04 A2957 RMK AO2
Pressure 29.57 in
Visibility 10.0 miles
Clouds Overcast 7500 ft
Windchill 36 °F
Dew Point 39 °F
Humidity 88%
Rainfall 0.00 in
Snow Depth Not available.
5:58 AM 8:08 PM
Waning Crescent, 2% visible
METAR KBFW 251114Z AUTO 01006KT 10SM -DZ OVC075 06/04 A2957 RMK AO2

Get Your Daily Forecast Email!

Thanks for signing up!

Be on the lookout for a verification email in your inbox.

You'll start receiving severe weather alerts in your inbox..

×

10-Day Weather Forecast

Almanac

Astronomy

Apr. 25, 2017 Rise Set
Actual Time
Civil Twilight
Nautical Twilight
Astronomical Twilight
Moon
Length of Visible Light
Length of Day
Tomorrow will be .
, % of the Moon is Illuminated

Today's Extremes

State Highs State Lows

Community

WunderPhotos

WunderBlog® & News

Nearby

Air Quality

  Air Quality AQ Index Pollutant
Not available.

Snow Depth

Station Depth Elevation

Earthquake Activity

City Distance Mag. Time & Date
Minimum magnitude displayed is 2.5.

Coastal Water Temperatures

Place Temperature

Stations

Nearby Weather Stations

Station Location Temp. Windchill Dew Point Humidity Wind Precip. Elev Updated Type
                   

Watches & Warnings

Winter Storm Watch
Issued: 4:01 AM CDT Apr. 25, 2017 – National Weather Service

... Winter Storm Watch in effect from this evening through
Thursday morning...

The National Weather Service in Duluth has issued a Winter Storm
Watch... which is in effect from this evening through Thursday
morning.

* Locations... the Minnesota arrowhead west into the Iron Range.

* Timing... rain will change to freezing rain this evening,
possibly mixing with or changing to sleet or snow Wednesday
morning.

* Ice accumulations... between one-tenth and one-half inch.

* Snow accumulations... 1 to 3 inches.

* Winds... north 5 to 15 mph with gusts up to 25 mph.

* Impacts... ice and snow accumulation on roads will make travel
difficult. Sidewalks and decks will become slippery. Ice buildup
on trees and power lines may lead to broken branches and power
outages.

Precautionary/preparedness actions...

A Winter Storm Watch means there is a potential for significant
snow, sleet, or ice accumulation that may impact travel. Keep up
with the latest forecast and prepare for potentially difficult
travel and isolated power outages.